sensor_id;sensor_type;location;lat;lon;timestamp;P1;durP1;ratioP1;P2;durP2;ratioP2
15848;SDS011;8024;48.708;9.394;2023-08-30T00:02:21;14.40;;;13.00;;
15848;SDS011;8024;48.708;9.394;2023-08-30T00:04:48;13.30;;;12.07;;
15848;SDS011;8024;48.708;9.394;2023-08-30T00:07:15;13.03;;;11.80;;
15848;SDS011;8024;48.708;9.394;2023-08-30T00:09:43;13.57;;;12.30;;
15848;SDS011;8024;48.708;9.394;2023-08-30T00:12:10;14.40;;;12.60;;
15848;SDS011;8024;48.708;9.394;2023-08-30T00:14:37;14.47;;;13.10;;
15848;SDS011;8024;48.708;9.394;2023-08-30T00:17:05;13.33;;;12.10;;
15848;SDS011;8024;48.708;9.394;2023-08-30T00:19:32;13.70;;;12.30;;
15848;SDS011;8024;48.708;9.394;2023-08-30T00:22:00;14.57;;;13.07;;
15848;SDS011;8024;48.708;9.394;2023-08-30T00:24:27;13.90;;;12.60;;
15848;SDS011;8024;48.708;9.394;2023-08-30T00:26:54;13.73;;;12.50;;
15848;SDS011;8024;48.708;9.394;2023-08-30T00:29:22;13.77;;;12.47;;
15848;SDS011;8024;48.708;9.394;2023-08-30T00:31:49;13.73;;;12.37;;
15848;SDS011;8024;48.708;9.394;2023-08-30T00:34:17;15.53;;;13.93;;
15848;SDS011;8024;48.708;9.394;2023-08-30T00:36:44;14.83;;;12.93;;
15848;SDS011;8024;48.708;9.394;2023-08-30T00:39:11;13.40;;;12.00;;
15848;SDS011;8024;48.708;9.394;2023-08-30T00:41:39;15.00;;;13.40;;
15848;SDS011;8024;48.708;9.394;2023-08-30T00:44:06;13.37;;;11.97;;
15848;SDS011;8024;48.708;9.394;2023-08-30T00:46:33;12.47;;;11.17;;
15848;SDS011;8024;48.708;9.394;2023-08-30T00:49:01;12.60;;;11.30;;
15848;SDS011;8024;48.708;9.394;2023-08-30T00:51:29;14.63;;;13.17;;
15848;SDS011;8024;48.708;9.394;2023-08-30T00:53:57;14.73;;;13.23;;
15848;SDS011;8024;48.708;9.394;2023-08-30T00:56:25;13.07;;;11.77;;
15848;SDS011;8024;48.708;9.394;2023-08-30T00:58:53;13.70;;;11.53;;
15848;SDS011;8024;48.708;9.394;2023-08-30T01:01:20;14.50;;;12.70;;
15848;SDS011;8024;48.708;9.394;2023-08-30T01:03:47;9.93;;;9.13;;
15848;SDS011;8024;48.708;9.394;2023-08-30T01:06:14;13.13;;;11.83;;
15848;SDS011;8024;48.708;9.394;2023-08-30T01:08:43;13.63;;;12.33;;
15848;SDS011;8024;48.708;9.394;2023-08-30T01:11:11;14.73;;;12.50;;
15848;SDS011;8024;48.708;9.394;2023-08-30T01:13:45;14.43;;;13.03;;
15848;SDS011;8024;48.708;9.394;2023-08-30T01:16:17;13.97;;;12.50;;
15848;SDS011;8024;48.708;9.394;2023-08-30T01:18:46;15.40;;;13.90;;
15848;SDS011;8024;48.708;9.394;2023-08-30T01:21:17;15.07;;;13.53;;
15848;SDS011;8024;48.708;9.394;2023-08-30T01:23:54;15.20;;;13.50;;
15848;SDS011;8024;48.708;9.394;2023-08-30T01:26:26;15.13;;;13.20;;
15848;SDS011;8024;48.708;9.394;2023-08-30T01:29:03;15.47;;;13.90;;
15848;SDS011;8024;48.708;9.394;2023-08-30T01:31:32;14.50;;;13.10;;
15848;SDS011;8024;48.708;9.394;2023-08-30T01:34:00;14.67;;;13.13;;
15848;SDS011;8024;48.708;9.394;2023-08-30T01:36:29;12.50;;;10.67;;
15848;SDS011;8024;48.708;9.394;2023-08-30T01:38:57;14.93;;;13.00;;
15848;SDS011;8024;48.708;9.394;2023-08-30T01:41:25;13.27;;;11.97;;
15848;SDS011;8024;48.708;9.394;2023-08-30T01:43:53;13.97;;;12.57;;
15848;SDS011;8024;48.708;9.394;2023-08-30T01:46:23;14.93;;;13.37;;
15848;SDS011;8024;48.708;9.394;2023-08-30T01:48:51;16.27;;;12.87;;
15848;SDS011;8024;48.708;9.394;2023-08-30T01:51:19;14.57;;;13.03;;
15848;SDS011;8024;48.708;9.394;2023-08-30T01:53:48;14.73;;;12.83;;
15848;SDS011;8024;48.708;9.394;2023-08-30T01:56:18;15.73;;;13.60;;
15848;SDS011;8024;48.708;9.394;2023-08-30T01:58:45;12.73;;;11.43;;
15848;SDS011;8024;48.708;9.394;2023-08-30T02:01:12;14.23;;;12.83;;
15848;SDS011;8024;48.708;9.394;2023-08-30T02:03:42;12.87;;;11.23;;
15848;SDS011;8024;48.708;9.394;2023-08-30T02:06:11;13.27;;;11.97;;
15848;SDS011;8024;48.708;9.394;2023-08-30T02:08:44;10.43;;;9.10;;
15848;SDS011;8024;48.708;9.394;2023-08-30T02:11:19;11.67;;;10.47;;
15848;SDS011;8024;48.708;9.394;2023-08-30T02:13:49;11.53;;;10.20;;
15848;SDS011;8024;48.708;9.394;2023-08-30T02:16:18;15.03;;;12.23;;
15848;SDS011;8024;48.708;9.394;2023-08-30T02:18:48;14.13;;;12.80;;
15848;SDS011;8024;48.708;9.394;2023-08-30T02:21:16;11.90;;;10.70;;
15848;SDS011;8024;48.708;9.394;2023-08-30T02:23:43;13.40;;;12.10;;
15848;SDS011;8024;48.708;9.394;2023-08-30T02:26:10;11.17;;;10.07;;
15848;SDS011;8024;48.708;9.394;2023-08-30T02:28:37;13.23;;;11.93;;
15848;SDS011;8024;48.708;9.394;2023-08-30T02:31:04;12.47;;;11.20;;
15848;SDS011;8024;48.708;9.394;2023-08-30T02:33:31;12.20;;;11.00;;
15848;SDS011;8024;48.708;9.394;2023-08-30T02:36:00;11.63;;;10.53;;
15848;SDS011;8024;48.708;9.394;2023-08-30T02:38:27;12.40;;;11.10;;
15848;SDS011;8024;48.708;9.394;2023-08-30T02:40:54;12.47;;;11.27;;
15848;SDS011;8024;48.708;9.394;2023-08-30T02:43:21;13.07;;;11.77;;
15848;SDS011;8024;48.708;9.394;2023-08-30T02:45:49;13.07;;;11.77;;
15848;SDS011;8024;48.708;9.394;2023-08-30T02:48:16;13.37;;;12.07;;
15848;SDS011;8024;48.708;9.394;2023-08-30T02:50:43;12.77;;;11.57;;
15848;SDS011;8024;48.708;9.394;2023-08-30T02:53:12;13.90;;;12.33;;
15848;SDS011;8024;48.708;9.394;2023-08-30T02:55:39;14.17;;;12.77;;
15848;SDS011;8024;48.708;9.394;2023-08-30T02:58:06;13.53;;;12.13;;
15848;SDS011;8024;48.708;9.394;2023-08-30T03:00:33;14.20;;;12.80;;
15848;SDS011;8024;48.708;9.394;2023-08-30T03:03:00;12.87;;;11.60;;
15848;SDS011;8024;48.708;9.394;2023-08-30T03:05:28;13.23;;;11.93;;
15848;SDS011;8024;48.708;9.394;2023-08-30T03:07:55;12.83;;;11.63;;
15848;SDS011;8024;48.708;9.394;2023-08-30T03:10:23;13.83;;;12.43;;
15848;SDS011;8024;48.708;9.394;2023-08-30T03:12:50;13.97;;;12.53;;
15848;SDS011;8024;48.708;9.394;2023-08-30T03:15:17;12.57;;;11.37;;
15848;SDS011;8024;48.708;9.394;2023-08-30T03:17:45;14.10;;;12.60;;
15848;SDS011;8024;48.708;9.394;2023-08-30T03:20:12;14.17;;;12.77;;
15848;SDS011;8024;48.708;9.394;2023-08-30T03:22:39;13.70;;;12.30;;
15848;SDS011;8024;48.708;9.394;2023-08-30T03:25:07;13.63;;;12.33;;
15848;SDS011;8024;48.708;9.394;2023-08-30T03:27:36;12.67;;;11.47;;
15848;SDS011;8024;48.708;9.394;2023-08-30T03:30:04;13.17;;;11.87;;
15848;SDS011;8024;48.708;9.394;2023-08-30T03:32:32;12.50;;;11.23;;
15848;SDS011;8024;48.708;9.394;2023-08-30T03:34:59;13.53;;;11.57;;
15848;SDS011;8024;48.708;9.394;2023-08-30T03:37:26;13.60;;;11.60;;
15848;SDS011;8024;48.708;9.394;2023-08-30T03:39:53;13.13;;;10.73;;
15848;SDS011;8024;48.708;9.394;2023-08-30T03:42:20;13.00;;;11.07;;
15848;SDS011;8024;48.708;9.394;2023-08-30T03:44:49;11.70;;;10.60;;
15848;SDS011;8024;48.708;9.394;2023-08-30T03:47:16;11.53;;;10.43;;
15848;SDS011;8024;48.708;9.394;2023-08-30T03:49:43;11.90;;;10.50;;
15848;SDS011;8024;48.708;9.394;2023-08-30T03:52:10;11.47;;;10.27;;
15848;SDS011;8024;48.708;9.394;2023-08-30T03:54:38;13.50;;;11.97;;
15848;SDS011;8024;48.708;9.394;2023-08-30T03:57:05;13.40;;;12.00;;
15848;SDS011;8024;48.708;9.394;2023-08-30T03:59:32;13.33;;;12.03;;
15848;SDS011;8024;48.708;9.394;2023-08-30T04:02:00;12.13;;;10.83;;
15848;SDS011;8024;48.708;9.394;2023-08-30T04:04:27;12.37;;;11.13;;
15848;SDS011;8024;48.708;9.394;2023-08-30T04:06:55;13.97;;;12.13;;
15848;SDS011;8024;48.708;9.394;2023-08-30T04:09:22;13.07;;;11.87;;
15848;SDS011;8024;48.708;9.394;2023-08-30T04:11:49;12.93;;;11.63;;
15848;SDS011;8024;48.708;9.394;2023-08-30T04:14:16;14.03;;;12.63;;
15848;SDS011;8024;48.708;9.394;2023-08-30T04:16:43;14.83;;;13.23;;
15848;SDS011;8024;48.708;9.394;2023-08-30T04:19:12;15.57;;;14.03;;
15848;SDS011;8024;48.708;9.394;2023-08-30T04:21:39;13.57;;;12.27;;
15848;SDS011;8024;48.708;9.394;2023-08-30T04:24:06;13.53;;;12.17;;
15848;SDS011;8024;48.708;9.394;2023-08-30T04:26:33;14.60;;;12.27;;
15848;SDS011;8024;48.708;9.394;2023-08-30T04:29:01;13.97;;;11.43;;
15848;SDS011;8024;48.708;9.394;2023-08-30T04:31:28;13.60;;;12.13;;
15848;SDS011;8024;48.708;9.394;2023-08-30T04:33:55;12.73;;;11.53;;
15848;SDS011;8024;48.708;9.394;2023-08-30T04:36:24;12.57;;;11.27;;
15848;SDS011;8024;48.708;9.394;2023-08-30T04:38:51;13.30;;;11.90;;
15848;SDS011;8024;48.708;9.394;2023-08-30T04:41:18;13.00;;;11.60;;
15848;SDS011;8024;48.708;9.394;2023-08-30T04:43:45;12.50;;;11.27;;
15848;SDS011;8024;48.708;9.394;2023-08-30T04:46:12;13.43;;;12.03;;
15848;SDS011;8024;48.708;9.394;2023-08-30T04:48:40;13.10;;;11.60;;
15848;SDS011;8024;48.708;9.394;2023-08-30T04:51:07;12.57;;;11.37;;
15848;SDS011;8024;48.708;9.394;2023-08-30T04:53:35;12.43;;;11.13;;
15848;SDS011;8024;48.708;9.394;2023-08-30T04:56:09;12.80;;;11.60;;
15848;SDS011;8024;48.708;9.394;2023-08-30T04:58:37;12.00;;;10.80;;
15848;SDS011;8024;48.708;9.394;2023-08-30T05:01:05;12.50;;;11.20;;
15848;SDS011;8024;48.708;9.394;2023-08-30T05:03:33;13.30;;;11.50;;
15848;SDS011;8024;48.708;9.394;2023-08-30T05:06:01;12.30;;;11.20;;
15848;SDS011;8024;48.708;9.394;2023-08-30T05:08:28;12.03;;;10.73;;
15848;SDS011;8024;48.708;9.394;2023-08-30T05:10:57;11.53;;;10.43;;
15848;SDS011;8024;48.708;9.394;2023-08-30T05:13:24;12.53;;;11.00;;
15848;SDS011;8024;48.708;9.394;2023-08-30T05:15:51;11.93;;;10.73;;
15848;SDS011;8024;48.708;9.394;2023-08-30T05:18:18;11.53;;;10.43;;
15848;SDS011;8024;48.708;9.394;2023-08-30T05:20:46;11.87;;;10.73;;
15848;SDS011;8024;48.708;9.394;2023-08-30T05:23:13;13.10;;;11.30;;
15848;SDS011;8024;48.708;9.394;2023-08-30T05:25:40;13.40;;;11.50;;
15848;SDS011;8024;48.708;9.394;2023-08-30T05:28:08;13.37;;;12.07;;
15848;SDS011;8024;48.708;9.394;2023-08-30T05:30:36;12.50;;;11.30;;
15848;SDS011;8024;48.708;9.394;2023-08-30T05:33:05;13.23;;;11.70;;
15848;SDS011;8024;48.708;9.394;2023-08-30T05:35:32;13.43;;;12.10;;
15848;SDS011;8024;48.708;9.394;2023-08-30T05:37:59;13.60;;;12.10;;
15848;SDS011;8024;48.708;9.394;2023-08-30T05:40:26;12.93;;;11.13;;
15848;SDS011;8024;48.708;9.394;2023-08-30T05:42:53;14.50;;;11.73;;
15848;SDS011;8024;48.708;9.394;2023-08-30T05:45:22;12.43;;;11.23;;
15848;SDS011;8024;48.708;9.394;2023-08-30T05:47:49;12.33;;;11.13;;
15848;SDS011;8024;48.708;9.394;2023-08-30T05:50:16;11.00;;;9.93;;
15848;SDS011;8024;48.708;9.394;2023-08-30T05:52:43;12.30;;;10.87;;
15848;SDS011;8024;48.708;9.394;2023-08-30T05:55:10;11.20;;;10.17;;
15848;SDS011;8024;48.708;9.394;2023-08-30T05:57:37;12.80;;;11.60;;
15848;SDS011;8024;48.708;9.394;2023-08-30T06:00:05;12.80;;;11.50;;
15848;SDS011;8024;48.708;9.394;2023-08-30T06:02:35;12.03;;;10.83;;
15848;SDS011;8024;48.708;9.394;2023-08-30T06:05:02;13.27;;;11.90;;
15848;SDS011;8024;48.708;9.394;2023-08-30T06:07:29;12.57;;;11.20;;
15848;SDS011;8024;48.708;9.394;2023-08-30T06:09:57;11.47;;;10.37;;
15848;SDS011;8024;48.708;9.394;2023-08-30T06:12:24;12.30;;;10.73;;
15848;SDS011;8024;48.708;9.394;2023-08-30T06:14:51;12.27;;;11.07;;
15848;SDS011;8024;48.708;9.394;2023-08-30T06:17:19;12.90;;;10.50;;
15848;SDS011;8024;48.708;9.394;2023-08-30T06:19:47;11.23;;;10.13;;
15848;SDS011;8024;48.708;9.394;2023-08-30T06:22:14;12.73;;;11.53;;
15848;SDS011;8024;48.708;9.394;2023-08-30T06:24:42;12.03;;;10.83;;
15848;SDS011;8024;48.708;9.394;2023-08-30T06:27:09;12.20;;;10.93;;
15848;SDS011;8024;48.708;9.394;2023-08-30T06:29:36;12.87;;;11.57;;
15848;SDS011;8024;48.708;9.394;2023-08-30T06:32:03;12.10;;;11.00;;
15848;SDS011;8024;48.708;9.394;2023-08-30T06:34:31;12.03;;;10.83;;
15848;SDS011;8024;48.708;9.394;2023-08-30T06:36:59;12.67;;;11.37;;
15848;SDS011;8024;48.708;9.394;2023-08-30T06:39:31;12.40;;;11.20;;
15848;SDS011;8024;48.708;9.394;2023-08-30T06:42:00;13.07;;;11.77;;
15848;SDS011;8024;48.708;9.394;2023-08-30T06:44:27;11.53;;;10.40;;
15848;SDS011;8024;48.708;9.394;2023-08-30T06:46:55;11.53;;;10.53;;
15848;SDS011;8024;48.708;9.394;2023-08-30T06:49:22;12.17;;;11.07;;
15848;SDS011;8024;48.708;9.394;2023-08-30T06:51:49;11.97;;;10.77;;
15848;SDS011;8024;48.708;9.394;2023-08-30T06:54:18;11.70;;;10.60;;
15848;SDS011;8024;48.708;9.394;2023-08-30T06:56:47;11.43;;;9.87;;
15848;SDS011;8024;48.708;9.394;2023-08-30T06:59:23;11.67;;;10.43;;
15848;SDS011;8024;48.708;9.394;2023-08-30T07:01:50;12.30;;;11.17;;
15848;SDS011;8024;48.708;9.394;2023-08-30T07:04:18;11.93;;;10.50;;
15848;SDS011;8024;48.708;9.394;2023-08-30T07:06:45;8.77;;;8.07;;
15848;SDS011;8024;48.708;9.394;2023-08-30T07:09:12;10.13;;;9.10;;
15848;SDS011;8024;48.708;9.394;2023-08-30T07:11:43;10.77;;;9.77;;
15848;SDS011;8024;48.708;9.394;2023-08-30T07:14:10;9.80;;;8.97;;
15848;SDS011;8024;48.708;9.394;2023-08-30T07:16:39;8.33;;;7.63;;
15848;SDS011;8024;48.708;9.394;2023-08-30T07:19:06;8.47;;;7.60;;
15848;SDS011;8024;48.708;9.394;2023-08-30T07:21:34;8.53;;;7.83;;
15848;SDS011;8024;48.708;9.394;2023-08-30T07:24:04;8.17;;;7.37;;
15848;SDS011;8024;48.708;9.394;2023-08-30T07:26:32;5.70;;;5.27;;
15848;SDS011;8024;48.708;9.394;2023-08-30T07:29:01;9.00;;;8.20;;
15848;SDS011;8024;48.708;9.394;2023-08-30T07:31:30;8.57;;;7.87;;
15848;SDS011;8024;48.708;9.394;2023-08-30T07:33:57;8.53;;;7.77;;
15848;SDS011;8024;48.708;9.394;2023-08-30T07:36:24;8.13;;;7.43;;
15848;SDS011;8024;48.708;9.394;2023-08-30T07:38:52;6.83;;;6.33;;
15848;SDS011;8024;48.708;9.394;2023-08-30T07:41:20;7.90;;;7.27;;
15848;SDS011;8024;48.708;9.394;2023-08-30T07:43:47;5.27;;;4.87;;
15848;SDS011;8024;48.708;9.394;2023-08-30T07:46:15;7.57;;;6.97;;
15848;SDS011;8024;48.708;9.394;2023-08-30T07:48:42;8.33;;;7.53;;
15848;SDS011;8024;48.708;9.394;2023-08-30T07:51:10;8.77;;;7.97;;
15848;SDS011;8024;48.708;9.394;2023-08-30T07:53:37;7.90;;;7.27;;
15848;SDS011;8024;48.708;9.394;2023-08-30T07:56:04;7.60;;;7.10;;
15848;SDS011;8024;48.708;9.394;2023-08-30T07:58:31;7.90;;;7.23;;
15848;SDS011;8024;48.708;9.394;2023-08-30T08:00:58;7.70;;;7.10;;
15848;SDS011;8024;48.708;9.394;2023-08-30T08:03:27;7.60;;;7.00;;
15848;SDS011;8024;48.708;9.394;2023-08-30T08:05:54;7.50;;;6.80;;
15848;SDS011;8024;48.708;9.394;2023-08-30T08:08:21;8.27;;;7.47;;
15848;SDS011;8024;48.708;9.394;2023-08-30T08:10:48;7.63;;;6.87;;
15848;SDS011;8024;48.708;9.394;2023-08-30T08:13:15;6.60;;;5.97;;
15848;SDS011;8024;48.708;9.394;2023-08-30T08:15:42;6.47;;;5.97;;
15848;SDS011;8024;48.708;9.394;2023-08-30T08:18:10;6.10;;;5.50;;
15848;SDS011;8024;48.708;9.394;2023-08-30T08:20:38;6.00;;;5.43;;
15848;SDS011;8024;48.708;9.394;2023-08-30T08:23:05;6.23;;;5.67;;
15848;SDS011;8024;48.708;9.394;2023-08-30T08:25:32;6.37;;;5.83;;
15848;SDS011;8024;48.708;9.394;2023-08-30T08:28:00;6.57;;;5.97;;
15848;SDS011;8024;48.708;9.394;2023-08-30T08:30:28;7.10;;;6.40;;
15848;SDS011;8024;48.708;9.394;2023-08-30T08:32:55;5.37;;;4.97;;
15848;SDS011;8024;48.708;9.394;2023-08-30T08:35:24;5.80;;;5.30;;
15848;SDS011;8024;48.708;9.394;2023-08-30T08:37:53;5.77;;;5.33;;
15848;SDS011;8024;48.708;9.394;2023-08-30T08:40:20;6.07;;;5.53;;
15848;SDS011;8024;48.708;9.394;2023-08-30T08:42:47;3.77;;;3.47;;
15848;SDS011;8024;48.708;9.394;2023-08-30T08:45:17;9.13;;;5.13;;
15848;SDS011;8024;48.708;9.394;2023-08-30T08:47:45;5.97;;;5.57;;
15848;SDS011;8024;48.708;9.394;2023-08-30T08:50:13;5.17;;;4.77;;
15848;SDS011;8024;48.708;9.394;2023-08-30T08:52:40;4.97;;;4.57;;
15848;SDS011;8024;48.708;9.394;2023-08-30T08:55:09;4.87;;;4.40;;
15848;SDS011;8024;48.708;9.394;2023-08-30T08:57:37;4.73;;;4.33;;
15848;SDS011;8024;48.708;9.394;2023-08-30T09:00:06;5.83;;;5.33;;
15848;SDS011;8024;48.708;9.394;2023-08-30T09:02:34;5.13;;;4.53;;
15848;SDS011;8024;48.708;9.394;2023-08-30T09:05:01;4.70;;;4.30;;
15848;SDS011;8024;48.708;9.394;2023-08-30T09:07:30;4.60;;;4.30;;
15848;SDS011;8024;48.708;9.394;2023-08-30T09:09:58;3.73;;;3.50;;
15848;SDS011;8024;48.708;9.394;2023-08-30T09:12:27;4.10;;;3.80;;
15848;SDS011;8024;48.708;9.394;2023-08-30T09:14:58;4.33;;;3.90;;
15848;SDS011;8024;48.708;9.394;2023-08-30T09:17:34;4.20;;;3.90;;
15848;SDS011;8024;48.708;9.394;2023-08-30T09:20:06;4.33;;;4.03;;
15848;SDS011;8024;48.708;9.394;2023-08-30T09:22:37;3.47;;;3.27;;
15848;SDS011;8024;48.708;9.394;2023-08-30T09:25:05;3.40;;;3.10;;
15848;SDS011;8024;48.708;9.394;2023-08-30T09:27:35;3.40;;;3.20;;
15848;SDS011;8024;48.708;9.394;2023-08-30T09:30:06;4.10;;;3.47;;
15848;SDS011;8024;48.708;9.394;2023-08-30T09:32:39;4.17;;;3.77;;
15848;SDS011;8024;48.708;9.394;2023-08-30T09:35:08;3.87;;;3.57;;
15848;SDS011;8024;48.708;9.394;2023-08-30T09:37:35;3.80;;;3.50;;
15848;SDS011;8024;48.708;9.394;2023-08-30T09:40:03;3.40;;;3.20;;
15848;SDS011;8024;48.708;9.394;2023-08-30T09:42:30;3.77;;;3.57;;
15848;SDS011;8024;48.708;9.394;2023-08-30T09:44:59;3.20;;;3.00;;
15848;SDS011;8024;48.708;9.394;2023-08-30T09:47:27;3.10;;;2.73;;
15848;SDS011;8024;48.708;9.394;2023-08-30T09:49:56;3.37;;;3.07;;
15848;SDS011;8024;48.708;9.394;2023-08-30T09:52:26;3.13;;;2.97;;
15848;SDS011;8024;48.708;9.394;2023-08-30T09:54:56;3.33;;;3.03;;
15848;SDS011;8024;48.708;9.394;2023-08-30T09:57:24;3.00;;;2.80;;
15848;SDS011;8024;48.708;9.394;2023-08-30T09:59:51;3.30;;;3.10;;
15848;SDS011;8024;48.708;9.394;2023-08-30T10:02:20;3.30;;;3.10;;
15848;SDS011;8024;48.708;9.394;2023-08-30T10:04:48;3.10;;;2.83;;
15848;SDS011;8024;48.708;9.394;2023-08-30T10:07:16;3.03;;;2.83;;
15848;SDS011;8024;48.708;9.394;2023-08-30T10:09:44;3.63;;;2.57;;
15848;SDS011;8024;48.708;9.394;2023-08-30T10:12:12;2.57;;;2.47;;
15848;SDS011;8024;48.708;9.394;2023-08-30T10:14:41;3.47;;;2.40;;
15848;SDS011;8024;48.708;9.394;2023-08-30T10:17:08;2.27;;;2.00;;
15848;SDS011;8024;48.708;9.394;2023-08-30T10:19:39;2.27;;;2.17;;
15848;SDS011;8024;48.708;9.394;2023-08-30T10:22:08;2.50;;;2.30;;
15848;SDS011;8024;48.708;9.394;2023-08-30T10:24:41;2.53;;;2.43;;
15848;SDS011;8024;48.708;9.394;2023-08-30T10:27:10;2.33;;;2.13;;
15848;SDS011;8024;48.708;9.394;2023-08-30T10:29:39;2.70;;;2.50;;
15848;SDS011;8024;48.708;9.394;2023-08-30T10:32:07;2.37;;;2.23;;
15848;SDS011;8024;48.708;9.394;2023-08-30T10:34:34;2.60;;;2.40;;
15848;SDS011;8024;48.708;9.394;2023-08-30T10:37:06;2.30;;;2.20;;
15848;SDS011;8024;48.708;9.394;2023-08-30T10:39:34;2.57;;;2.40;;
15848;SDS011;8024;48.708;9.394;2023-08-30T10:42:07;2.37;;;2.27;;
15848;SDS011;8024;48.708;9.394;2023-08-30T10:44:46;2.53;;;2.43;;
15848;SDS011;8024;48.708;9.394;2023-08-30T10:47:17;2.93;;;2.73;;
15848;SDS011;8024;48.708;9.394;2023-08-30T10:49:46;2.10;;;2.00;;
15848;SDS011;8024;48.708;9.394;2023-08-30T10:52:15;2.60;;;2.40;;
15848;SDS011;8024;48.708;9.394;2023-08-30T10:54:42;2.00;;;1.90;;
15848;SDS011;8024;48.708;9.394;2023-08-30T10:57:12;2.07;;;1.97;;
15848;SDS011;8024;48.708;9.394;2023-08-30T10:59:47;2.33;;;2.23;;
15848;SDS011;8024;48.708;9.394;2023-08-30T11:02:30;2.17;;;2.07;;
15848;SDS011;8024;48.708;9.394;2023-08-30T11:04:58;2.40;;;2.30;;
15848;SDS011;8024;48.708;9.394;2023-08-30T11:07:27;2.70;;;2.50;;
15848;SDS011;8024;48.708;9.394;2023-08-30T11:09:54;2.57;;;2.47;;
15848;SDS011;8024;48.708;9.394;2023-08-30T11:12:21;1.97;;;1.87;;
15848;SDS011;8024;48.708;9.394;2023-08-30T11:14:51;2.23;;;2.13;;
15848;SDS011;8024;48.708;9.394;2023-08-30T11:17:18;3.57;;;2.27;;
15848;SDS011;8024;48.708;9.394;2023-08-30T11:19:46;2.00;;;1.87;;
15848;SDS011;8024;48.708;9.394;2023-08-30T11:22:15;1.40;;;1.37;;
15848;SDS011;8024;48.708;9.394;2023-08-30T11:24:44;1.80;;;1.70;;
15848;SDS011;8024;48.708;9.394;2023-08-30T11:27:13;1.27;;;1.27;;
15848;SDS011;8024;48.708;9.394;2023-08-30T11:29:42;1.53;;;1.43;;
15848;SDS011;8024;48.708;9.394;2023-08-30T11:32:09;1.80;;;1.70;;
15848;SDS011;8024;48.708;9.394;2023-08-30T11:34:36;1.47;;;1.37;;
15848;SDS011;8024;48.708;9.394;2023-08-30T11:37:03;1.53;;;1.30;;
15848;SDS011;8024;48.708;9.394;2023-08-30T11:39:31;1.33;;;1.23;;
15848;SDS011;8024;48.708;9.394;2023-08-30T11:41:59;1.20;;;1.20;;
15848;SDS011;8024;48.708;9.394;2023-08-30T11:44:30;1.07;;;0.80;;
15848;SDS011;8024;48.708;9.394;2023-08-30T11:46:57;1.03;;;1.03;;
15848;SDS011;8024;48.708;9.394;2023-08-30T11:49:25;1.77;;;0.97;;
15848;SDS011;8024;48.708;9.394;2023-08-30T11:51:53;0.60;;;0.60;;
15848;SDS011;8024;48.708;9.394;2023-08-30T11:54:21;1.30;;;0.83;;
15848;SDS011;8024;48.708;9.394;2023-08-30T11:56:49;1.20;;;1.20;;
15848;SDS011;8024;48.708;9.394;2023-08-30T11:59:21;0.40;;;0.40;;
15848;SDS011;8024;48.708;9.394;2023-08-30T12:01:48;0.50;;;0.50;;
15848;SDS011;8024;48.708;9.394;2023-08-30T12:04:18;0.87;;;0.87;;
15848;SDS011;8024;48.708;9.394;2023-08-30T12:06:50;1.20;;;1.10;;
15848;SDS011;8024;48.708;9.394;2023-08-30T12:09:18;1.00;;;1.00;;
15848;SDS011;8024;48.708;9.394;2023-08-30T12:11:47;1.53;;;1.47;;
15848;SDS011;8024;48.708;9.394;2023-08-30T12:14:14;0.97;;;0.97;;
15848;SDS011;8024;48.708;9.394;2023-08-30T12:16:43;1.00;;;1.00;;
15848;SDS011;8024;48.708;9.394;2023-08-30T12:19:12;1.40;;;1.00;;
15848;SDS011;8024;48.708;9.394;2023-08-30T12:21:41;0.93;;;0.93;;
15848;SDS011;8024;48.708;9.394;2023-08-30T12:24:08;1.27;;;1.17;;
15848;SDS011;8024;48.708;9.394;2023-08-30T12:26:36;1.40;;;1.30;;
15848;SDS011;8024;48.708;9.394;2023-08-30T12:29:03;1.40;;;1.30;;
15848;SDS011;8024;48.708;9.394;2023-08-30T12:31:31;1.37;;;1.00;;
15848;SDS011;8024;48.708;9.394;2023-08-30T12:34:00;1.30;;;1.20;;
15848;SDS011;8024;48.708;9.394;2023-08-30T12:36:27;1.10;;;1.10;;
15848;SDS011;8024;48.708;9.394;2023-08-30T12:38:54;1.13;;;1.10;;
15848;SDS011;8024;48.708;9.394;2023-08-30T12:41:21;1.23;;;1.13;;
15848;SDS011;8024;48.708;9.394;2023-08-30T12:43:48;1.07;;;1.07;;
15848;SDS011;8024;48.708;9.394;2023-08-30T12:46:16;1.30;;;1.20;;
15848;SDS011;8024;48.708;9.394;2023-08-30T12:48:42;1.13;;;0.73;;
15848;SDS011;8024;48.708;9.394;2023-08-30T12:51:11;1.10;;;0.80;;
15848;SDS011;8024;48.708;9.394;2023-08-30T12:53:39;1.10;;;0.80;;
15848;SDS011;8024;48.708;9.394;2023-08-30T12:56:06;2.97;;;1.30;;
15848;SDS011;8024;48.708;9.394;2023-08-30T12:58:34;1.47;;;1.00;;
15848;SDS011;8024;48.708;9.394;2023-08-30T13:01:01;1.20;;;1.20;;
15848;SDS011;8024;48.708;9.394;2023-08-30T13:03:29;2.00;;;1.90;;
15848;SDS011;8024;48.708;9.394;2023-08-30T13:05:56;1.97;;;1.70;;
15848;SDS011;8024;48.708;9.394;2023-08-30T13:08:25;1.70;;;1.60;;
15848;SDS011;8024;48.708;9.394;2023-08-30T13:10:53;2.50;;;2.30;;
15848;SDS011;8024;48.708;9.394;2023-08-30T13:13:20;1.93;;;1.80;;
15848;SDS011;8024;48.708;9.394;2023-08-30T13:15:47;2.33;;;2.13;;
15848;SDS011;8024;48.708;9.394;2023-08-30T13:18:14;2.70;;;2.50;;
15848;SDS011;8024;48.708;9.394;2023-08-30T13:20:42;3.10;;;2.90;;
15848;SDS011;8024;48.708;9.394;2023-08-30T13:23:10;2.90;;;2.70;;
15848;SDS011;8024;48.708;9.394;2023-08-30T13:25:39;2.97;;;2.77;;
15848;SDS011;8024;48.708;9.394;2023-08-30T13:28:07;2.63;;;2.43;;
15848;SDS011;8024;48.708;9.394;2023-08-30T13:30:34;2.27;;;2.17;;
15848;SDS011;8024;48.708;9.394;2023-08-30T13:33:01;2.20;;;2.10;;
15848;SDS011;8024;48.708;9.394;2023-08-30T13:35:29;2.47;;;2.37;;
15848;SDS011;8024;48.708;9.394;2023-08-30T13:37:56;3.03;;;2.67;;
15848;SDS011;8024;48.708;9.394;2023-08-30T13:40:23;2.73;;;2.53;;
15848;SDS011;8024;48.708;9.394;2023-08-30T13:42:52;3.03;;;2.70;;
15848;SDS011;8024;48.708;9.394;2023-08-30T13:45:19;3.00;;;2.77;;
15848;SDS011;8024;48.708;9.394;2023-08-30T13:47:46;2.77;;;2.57;;
15848;SDS011;8024;48.708;9.394;2023-08-30T13:50:16;3.00;;;2.80;;
15848;SDS011;8024;48.708;9.394;2023-08-30T13:52:43;2.90;;;2.70;;
15848;SDS011;8024;48.708;9.394;2023-08-30T13:55:11;3.80;;;3.40;;
15848;SDS011;8024;48.708;9.394;2023-08-30T13:57:38;2.87;;;2.70;;
15848;SDS011;8024;48.708;9.394;2023-08-30T14:00:07;3.00;;;2.70;;
15848;SDS011;8024;48.708;9.394;2023-08-30T14:02:35;2.50;;;2.23;;
15848;SDS011;8024;48.708;9.394;2023-08-30T14:05:03;2.47;;;2.33;;
15848;SDS011;8024;48.708;9.394;2023-08-30T14:07:30;2.60;;;2.40;;
15848;SDS011;8024;48.708;9.394;2023-08-30T14:09:58;2.73;;;2.53;;
15848;SDS011;8024;48.708;9.394;2023-08-30T14:12:25;3.60;;;3.13;;
15848;SDS011;8024;48.708;9.394;2023-08-30T14:14:52;2.43;;;2.30;;
15848;SDS011;8024;48.708;9.394;2023-08-30T14:17:21;2.50;;;2.30;;
15848;SDS011;8024;48.708;9.394;2023-08-30T14:19:48;2.73;;;2.53;;
15848;SDS011;8024;48.708;9.394;2023-08-30T14:22:16;2.00;;;1.90;;
15848;SDS011;8024;48.708;9.394;2023-08-30T14:24:44;2.80;;;2.27;;
15848;SDS011;8024;48.708;9.394;2023-08-30T14:27:12;2.67;;;2.23;;
15848;SDS011;8024;48.708;9.394;2023-08-30T14:29:39;2.50;;;2.40;;
15848;SDS011;8024;48.708;9.394;2023-08-30T14:32:07;2.73;;;2.63;;
15848;SDS011;8024;48.708;9.394;2023-08-30T14:34:35;2.43;;;2.23;;
15848;SDS011;8024;48.708;9.394;2023-08-30T14:37:02;2.33;;;1.90;;
15848;SDS011;8024;48.708;9.394;2023-08-30T14:39:29;2.53;;;1.80;;
15848;SDS011;8024;48.708;9.394;2023-08-30T14:41:57;1.30;;;1.20;;
15848;SDS011;8024;48.708;9.394;2023-08-30T14:44:24;1.30;;;1.20;;
15848;SDS011;8024;48.708;9.394;2023-08-30T14:46:51;1.67;;;1.27;;
15848;SDS011;8024;48.708;9.394;2023-08-30T14:49:19;1.60;;;1.43;;
15848;SDS011;8024;48.708;9.394;2023-08-30T14:51:47;1.67;;;1.57;;
15848;SDS011;8024;48.708;9.394;2023-08-30T14:54:15;1.83;;;1.73;;